Time;durP1;ratioP1;P1;durP2;ratioP2;P2;SDS_P1;SDS_P2;PMS_P1;PMS_P2;Temp;Humidity;BMP_temperature;BMP_pressure;BME280_temperature;BME280_humidity;BME280_pressure;Samples;Min_cycle;Max_cycle;Signal;HPM_P1;HPM_P2
2022/08/17 00:02:05;;;;;;;12.10;10.90;;;20.00;99.90;;;;;;5097764;28;20492;-51
2022/08/17 00:04:32;;;;;;;14.60;9.90;;;20.00;99.90;;;;;;5097549;28;20463;-55
2022/08/17 00:06:59;;;;;;;12.13;10.93;;;20.00;99.90;;;;;;5098300;28;20460;-53
2022/08/17 00:09:26;;;;;;;11.83;10.83;;;19.90;99.90;;;;;;5098011;28;20515;-55
2022/08/17 00:11:54;;;;;;;11.47;10.23;;;19.90;99.90;;;;;;5097291;28;20461;-55
2022/08/17 00:14:22;;;;;;;10.70;9.63;;;19.90;99.90;;;;;;5097354;28;20435;-56
2022/08/17 00:16:53;;;;;;;10.70;9.67;;;19.90;99.90;;;;;;5097761;28;20485;-56
2022/08/17 00:19:23;;;;;;;11.27;10.20;;;19.90;99.90;;;;;;5098446;28;20467;-55
2022/08/17 00:21:52;;;;;;;12.53;11.00;;;19.90;99.90;;;;;;5097551;28;20492;-56
2022/08/17 00:24:20;;;;;;;13.23;11.53;;;19.90;99.90;;;;;;5096061;28;20873;-56
2022/08/17 00:26:47;;;;;;;12.03;10.83;;;19.90;99.90;;;;;;5097399;28;20464;-54
2022/08/17 00:29:14;;;;;;;11.33;10.43;;;20.00;99.90;;;;;;5098184;28;20478;-53
2022/08/17 00:31:43;;;;;;;11.90;10.80;;;19.90;99.90;;;;;;5096863;28;20479;-56
2022/08/17 00:34:10;;;;;;;12.00;10.80;;;19.90;99.90;;;;;;5096832;28;20439;-56
2022/08/17 00:36:37;;;;;;;12.77;11.77;;;19.90;99.90;;;;;;5096755;28;20463;-54
2022/08/17 00:39:07;;;;;;;11.23;10.13;;;19.90;99.90;;;;;;5097626;28;20460;-57
2022/08/17 00:41:35;;;;;;;12.27;11.10;;;19.90;99.90;;;;;;5096994;28;20550;-55
2022/08/17 00:44:04;;;;;;;11.50;10.50;;;19.90;99.90;;;;;;5097167;28;20461;-56
2022/08/17 00:46:35;;;;;;;11.70;10.53;;;19.90;99.90;;;;;;5096703;28;20562;-53
2022/08/17 00:49:05;;;;;;;11.93;10.93;;;19.90;99.90;;;;;;5097481;28;20514;-53
2022/08/17 00:51:35;;;;;;;11.47;10.67;;;19.90;99.90;;;;;;5097369;28;20968;-56
2022/08/17 00:54:08;;;;;;;11.70;10.70;;;19.80;99.90;;;;;;5097794;28;20882;-56
2022/08/17 00:56:42;;;;;;;12.07;10.90;;;19.70;99.90;;;;;;5096493;28;20911;-57
2022/08/17 00:59:14;;;;;;;11.77;10.77;;;19.70;99.90;;;;;;5097488;28;20466;-55
2022/08/17 01:01:42;;;;;;;13.33;10.77;;;19.70;99.90;;;;;;5096319;28;20931;-55
2022/08/17 01:04:12;;;;;;;11.03;9.40;;;19.60;99.90;;;;;;5099291;28;20551;-54
2022/08/17 01:06:41;;;;;;;10.80;9.90;;;19.70;99.90;;;;;;5099180;28;20475;-56
2022/08/17 01:09:09;;;;;;;11.40;10.50;;;19.70;99.90;;;;;;5101671;28;20491;-56
2022/08/17 01:11:39;;;;;;;11.40;10.40;;;19.70;99.90;;;;;;5100857;28;20511;-53
2022/08/17 01:14:07;;;;;;;14.97;11.97;;;19.70;99.90;;;;;;5101256;28;20434;-55
2022/08/17 01:16:36;;;;;;;12.00;10.83;;;19.60;99.90;;;;;;5100208;28;20494;-54
2022/08/17 01:19:10;;;;;;;12.20;11.10;;;19.60;99.90;;;;;;5101464;28;20461;-53
2022/08/17 01:21:47;;;;;;;12.23;11.00;;;19.60;99.90;;;;;;5100561;28;20464;-56
2022/08/17 01:24:18;;;;;;;12.60;11.60;;;19.50;99.90;;;;;;5101551;28;20489;-56
2022/08/17 01:26:46;;;;;;;12.27;11.17;;;19.50;99.90;;;;;;5099986;28;20930;-54
2022/08/17 01:29:13;;;;;;;11.33;10.27;;;19.50;99.90;;;;;;5099213;28;20544;-55
2022/08/17 01:31:45;;;;;;;12.97;11.00;;;19.40;99.90;;;;;;5100183;28;20466;-55
2022/08/17 01:34:18;;;;;;;10.90;9.77;;;19.30;99.90;;;;;;5100520;28;20715;-54
2022/08/17 01:36:47;;;;;;;12.17;11.07;;;19.30;99.90;;;;;;5100466;28;20909;-56
2022/08/17 01:39:23;;;;;;;11.60;10.47;;;19.20;99.90;;;;;;5100434;28;20539;-55
2022/08/17 01:41:54;;;;;;;11.27;10.27;;;19.10;99.90;;;;;;5100381;28;20897;-56
2022/08/17 01:44:28;;;;;;;11.87;10.87;;;19.10;99.90;;;;;;5100598;28;20461;-56
2022/08/17 01:47:01;;;;;;;12.53;11.53;;;19.20;99.90;;;;;;5100841;28;20467;-56
2022/08/17 01:49:29;;;;;;;11.70;10.63;;;19.20;99.90;;;;;;5099592;28;20471;-55
2022/08/17 01:51:56;;;;;;;11.73;10.63;;;19.10;99.90;;;;;;5100006;28;20482;-53
2022/08/17 01:54:26;;;;;;;11.73;10.53;;;19.10;99.90;;;;;;5100549;28;20896;-55
2022/08/17 01:56:55;;;;;;;11.83;10.67;;;19.10;99.90;;;;;;5099846;28;20460;-55
2022/08/17 01:59:24;;;;;;;12.37;11.17;;;19.00;99.90;;;;;;5099518;28;20464;-51
2022/08/17 02:01:52;;;;;;;11.63;10.57;;;19.00;99.90;;;;;;5100571;28;20464;-53
2022/08/17 02:04:19;;;;;;;11.10;10.00;;;18.90;99.90;;;;;;5099643;28;20522;-56
2022/08/17 02:06:46;;;;;;;11.67;10.57;;;18.90;99.90;;;;;;5100721;28;20522;-56
2022/08/17 02:09:13;;;;;;;12.87;11.70;;;18.90;99.90;;;;;;5099793;28;20465;-55
2022/08/17 02:11:42;;;;;;;11.47;10.27;;;18.90;99.90;;;;;;5099921;28;20966;-50
2022/08/17 02:14:10;;;;;;;11.13;9.93;;;18.90;99.90;;;;;;5099201;28;20518;-53
2022/08/17 02:16:40;;;;;;;10.60;9.80;;;18.80;99.90;;;;;;5099998;28;20459;-55
2022/08/17 02:19:11;;;;;;;11.33;10.43;;;18.80;99.90;;;;;;5099412;28;20517;-56
2022/08/17 02:21:40;;;;;;;12.57;11.50;;;18.80;99.90;;;;;;5099656;28;20460;-55
2022/08/17 02:24:15;;;;;;;11.27;10.20;;;18.70;99.90;;;;;;5099362;28;20484;-51
2022/08/17 02:26:45;;;;;;;12.53;11.43;;;18.60;99.90;;;;;;5100206;28;20441;-54
2022/08/17 02:29:13;;;;;;;11.80;10.77;;;18.60;99.90;;;;;;5099768;28;20506;-55
2022/08/17 02:31:41;;;;;;;11.53;10.50;;;18.50;99.90;;;;;;5098978;28;20464;-52
2022/08/17 02:34:09;;;;;;;11.67;10.67;;;18.40;99.90;;;;;;5099131;28;20510;-56
2022/08/17 02:36:37;;;;;;;11.40;10.50;;;18.30;1.00;;;;;;5099971;28;20550;-53
2022/08/17 02:39:08;;;;;;;12.00;10.87;;;18.40;1.00;;;;;;5099744;28;20464;-54
2022/08/17 02:41:36;;;;;;;12.47;11.33;;;18.40;1.00;;;;;;5098759;28;20460;-56
2022/08/17 02:44:06;;;;;;;12.03;10.90;;;18.40;1.00;;;;;;5099428;28;20496;-55
2022/08/17 02:46:33;;;;;;;12.30;11.20;;;18.40;1.00;;;;;;5099625;28;20926;-54
2022/08/17 02:49:01;;;;;;;12.43;11.23;;;18.30;1.00;;;;;;5099656;28;20460;-50
2022/08/17 02:51:28;;;;;;;11.63;10.63;;;18.30;1.00;;;;;;5098776;28;20819;-56
2022/08/17 02:53:57;;;;;;;12.73;10.97;;;18.20;1.00;;;;;;5099129;28;20471;-56
2022/08/17 02:56:25;;;;;;;12.40;11.30;;;18.10;1.00;;;;;;5099480;28;20574;-55
2022/08/17 02:58:52;;;;;;;13.40;9.87;;;18.10;1.00;;;;;;5098744;28;20461;-52
2022/08/17 03:01:26;;;;;;;11.47;10.47;;;18.10;1.00;;;;;;5098758;28;20457;-56
2022/08/17 03:03:54;;;;;;;11.00;9.97;;;18.00;1.00;;;;;;5098524;28;20625;-57
2022/08/17 03:06:21;;;;;;;11.73;10.73;;;18.00;1.00;;;;;;5099334;28;20473;-54
2022/08/17 03:08:48;;;;;;;10.63;9.73;;;18.00;1.00;;;;;;5098865;28;20630;-56
2022/08/17 03:11:16;;;;;;;11.73;10.73;;;18.00;1.00;;;;;;5098654;28;20624;-57
2022/08/17 03:13:43;;;;;;;11.80;10.60;;;18.00;1.00;;;;;;5098842;28;20460;-56
2022/08/17 03:16:12;;;;;;;10.57;9.60;;;18.00;1.00;;;;;;5098242;28;20470;-56
2022/08/17 03:18:40;;;;;;;12.80;11.70;;;18.00;1.00;;;;;;5099018;28;20562;-53
2022/08/17 03:21:08;;;;;;;11.13;10.13;;;17.90;1.00;;;;;;5098168;28;20874;-55
2022/08/17 03:23:39;;;;;;;10.50;9.10;;;17.90;1.00;;;;;;5098570;28;20466;-54
2022/08/17 03:26:10;;;;;;;10.90;9.90;;;17.90;1.00;;;;;;5098145;28;20461;-55
2022/08/17 03:28:38;;;;;;;11.30;10.30;;;17.90;1.00;;;;;;5098240;28;20953;-57
2022/08/17 03:31:07;;;;;;;11.20;10.20;;;17.90;1.00;;;;;;5097875;28;20473;-55
2022/08/17 03:33:34;;;;;;;10.37;9.57;;;17.90;1.00;;;;;;5097444;28;20467;-55
2022/08/17 03:36:03;;;;;;;12.27;10.33;;;18.00;1.00;;;;;;5098423;28;20745;-56
2022/08/17 03:38:30;;;;;;;10.27;9.27;;;18.10;1.00;;;;;;5098765;28;20435;-56
2022/08/17 03:40:57;;;;;;;10.10;9.10;;;18.10;1.00;;;;;;5098836;28;20439;-52
2022/08/17 03:43:26;;;;;;;11.03;9.93;;;18.10;1.00;;;;;;5097216;28;20575;-52
2022/08/17 03:57:04;;;;;;;9.93;8.90;;;17.90;1.00;;;;;;5096366;28;20447;-54
2022/08/17 03:59:35;;;;;;;9.93;9.03;;;17.80;1.00;;;;;;5097299;28;20521;-53
2022/08/17 04:02:07;;;;;;;11.00;8.80;;;17.80;1.00;;;;;;5097334;28;20741;-51
2022/08/17 04:04:35;;;;;;;9.67;8.87;;;17.80;1.00;;;;;;5097110;28;20753;-55
2022/08/17 04:07:05;;;;;;;9.90;9.10;;;17.70;1.00;;;;;;5097887;28;20543;-53
2022/08/17 04:09:32;;;;;;;9.70;8.90;;;17.70;1.00;;;;;;5097572;28;20470;-57
2022/08/17 04:12:00;;;;;;;11.13;9.90;;;17.60;1.00;;;;;;5097239;28;20534;-57
2022/08/17 04:14:29;;;;;;;10.03;9.23;;;17.60;1.00;;;;;;5096607;28;20441;-57
2022/08/17 04:16:57;;;;;;;10.40;9.50;;;17.60;1.00;;;;;;5097561;28;20494;-51
2022/08/17 04:19:25;;;;;;;9.90;9.10;;;17.60;1.00;;;;;;5097281;28;20460;-55
2022/08/17 04:21:52;;;;;;;10.23;9.23;;;17.60;1.00;;;;;;5097781;28;20830;-57
2022/08/17 04:24:21;;;;;;;11.73;10.70;;;17.70;1.00;;;;;;5096700;28;20494;-54
2022/08/17 04:26:49;;;;;;;11.10;10.00;;;17.70;1.00;;;;;;5097766;28;20460;-56
2022/08/17 04:29:17;;;;;;;10.17;9.30;;;17.60;1.00;;;;;;5096829;28;20579;-55
2022/08/17 04:31:47;;;;;;;10.87;9.80;;;17.70;1.00;;;;;;5096235;28;20886;-54
2022/08/17 04:34:15;;;;;;;10.67;9.67;;;17.60;1.00;;;;;;5097352;28;20988;-54
2022/08/17 04:36:43;;;;;;;11.50;10.30;;;17.60;1.00;;;;;;5097083;28;20499;-57
2022/08/17 04:39:12;;;;;;;11.80;10.80;;;17.60;1.00;;;;;;5097618;28;20457;-55
2022/08/17 04:44:26;;;;;;;11.50;10.50;;;17.80;1.00;;;;;;5096629;28;20483;-52
2022/08/17 04:46:55;;;;;;;10.40;9.50;;;17.80;1.00;;;;;;5096629;28;20469;-54
2022/08/17 04:49:22;;;;;;;10.03;9.03;;;17.90;1.00;;;;;;5096543;28;20780;-55
2022/08/17 04:51:49;;;;;;;10.00;9.20;;;18.10;1.00;;;;;;5096955;28;20486;-53
2022/08/17 04:54:18;;;;;;;11.43;10.10;;;18.20;1.00;;;;;;5097459;28;20525;-53
2022/08/17 04:56:48;;;;;;;9.57;8.77;;;18.20;1.00;;;;;;5097102;28;20468;-50
2022/08/17 04:59:19;;;;;;;9.47;8.67;;;18.20;1.00;;;;;;5095891;28;20514;-57
2022/08/17 05:01:48;;;;;;;9.10;8.20;;;18.20;1.00;;;;;;5096072;28;20471;-57
2022/08/17 05:04:26;;;;;;;9.63;8.83;;;18.40;1.00;;;;;;5095946;28;20463;-56
2022/08/17 05:06:54;;;;;;;9.43;8.23;;;18.50;99.90;;;;;;5094957;28;20566;-54
2022/08/17 05:09:23;;;;;;;10.20;9.30;;;18.60;99.90;;;;;;5095197;28;20448;-53
2022/08/17 05:11:52;;;;;;;7.90;7.20;;;18.60;99.90;;;;;;5096524;28;20549;-54
2022/08/17 05:14:19;;;;;;;8.67;7.97;;;18.60;99.90;;;;;;5096678;28;20492;-51
2022/08/17 05:16:49;;;;;;;8.70;7.80;;;18.70;99.90;;;;;;5095447;28;20460;-53
2022/08/17 05:19:17;;;;;;;8.40;7.70;;;18.80;99.90;;;;;;5096692;28;20704;-53
2022/08/17 05:21:44;;;;;;;11.70;8.03;;;18.90;99.90;;;;;;5096072;28;20482;-52
2022/08/17 05:24:12;;;;;;;8.37;7.67;;;19.00;99.90;;;;;;5096671;28;20536;-48
2022/08/17 05:26:41;;;;;;;8.83;8.13;;;19.10;99.90;;;;;;5096879;28;20439;-53
2022/08/17 05:29:09;;;;;;;8.30;7.60;;;19.20;99.90;;;;;;5095706;28;20471;-53
2022/08/17 05:31:40;;;;;;;8.40;7.70;;;19.30;99.90;;;;;;5095622;28;20947;-54
2022/08/17 05:34:07;;;;;;;8.37;7.67;;;19.40;99.90;;;;;;5089691;28;20539;-53
2022/08/17 05:36:37;;;;;;;8.80;8.03;;;19.50;99.90;;;;;;5096027;28;20550;-55
2022/08/17 05:39:06;;;;;;;8.50;7.80;;;19.60;99.90;;;;;;5096290;28;20518;-53
2022/08/17 05:41:33;;;;;;;9.23;7.60;;;19.70;99.90;;;;;;5096911;28;20452;-55
2022/08/17 05:44:01;;;;;;;8.30;7.50;;;19.80;99.90;;;;;;5095737;28;20589;-57
2022/08/17 05:46:36;;;;;;;7.67;6.97;;;19.90;99.90;;;;;;5097148;28;20460;-56
2022/08/17 05:49:07;;;;;;;7.30;6.60;;;20.10;99.90;;;;;;5096419;28;20474;-55
2022/08/17 05:52:03;;;;;;;7.80;7.10;;;20.20;99.90;;;;;;5100363;28;20483;-51
2022/08/17 05:54:42;;;;;;;7.33;6.73;;;20.40;99.90;;;;;;5099766;28;20966;-55
2022/08/17 05:57:34;;;;;;;8.37;7.70;;;20.60;99.90;;;;;;5100319;28;20460;-55
2022/08/17 06:00:09;;;;;;;7.57;6.97;;;20.70;99.90;;;;;;5100241;28;20559;-53
2022/08/17 06:02:45;;;;;;;7.70;7.00;;;20.90;99.90;;;;;;5099926;28;20771;-55
2022/08/17 06:05:26;;;;;;;9.10;8.20;;;21.00;99.90;;;;;;5098560;28;20479;-57
2022/08/17 06:08:02;;;;;;;7.07;6.30;;;21.10;99.90;;;;;;5100055;28;20980;-57
2022/08/17 06:10:38;;;;;;;7.93;7.07;;;21.30;99.90;;;;;;5100474;28;20908;-57
2022/08/17 06:13:18;;;;;;;8.37;7.57;;;21.40;99.90;;;;;;5100871;28;20539;-55
2022/08/17 06:15:56;;;;;;;7.70;6.63;;;21.40;99.90;;;;;;5099463;28;20466;-55
2022/08/17 06:18:30;;;;;;;7.10;6.40;;;21.50;99.90;;;;;;5099520;28;20492;-56
2022/08/17 06:21:24;;;;;;;8.73;7.83;;;21.60;99.90;;;;;;5095070;28;20464;-57
2022/08/17 06:23:59;;;;;;;8.10;7.30;;;21.60;99.90;;;;;;5084283;28;20886;-54
2022/08/17 06:26:33;;;;;;;6.80;6.20;;;21.60;99.90;;;;;;5100102;28;20491;-57
2022/08/17 06:29:07;;;;;;;10.03;6.77;;;21.70;99.90;;;;;;5094995;28;20460;-54
2022/08/17 06:31:42;;;;;;;6.20;5.70;;;21.70;99.90;;;;;;5099378;28;20484;-55
2022/08/17 06:34:13;;;;;;;7.77;7.17;;;21.80;99.90;;;;;;5078990;28;20554;-57
2022/08/17 06:36:52;;;;;;;7.63;6.87;;;21.90;99.90;;;;;;5097580;28;20460;-54
2022/08/17 06:39:34;;;;;;;8.57;6.90;;;22.00;99.90;;;;;;5099781;28;20551;-57
2022/08/17 06:42:13;;;;;;;6.43;5.90;;;22.10;99.90;;;;;;5094630;28;20473;-57
2022/08/17 06:44:46;;;;;;;7.87;7.07;;;22.20;99.90;;;;;;5097515;28;20986;-54
2022/08/17 06:47:22;;;;;;;16.33;8.37;;;22.30;99.90;;;;;;5097857;28;20479;-56
2022/08/17 06:50:00;;;;;;;8.47;7.67;;;22.50;99.90;;;;;;5098768;28;20468;-56
2022/08/17 06:52:33;;;;;;;8.73;7.20;;;22.60;99.90;;;;;;5096120;28;20470;-56
2022/08/17 06:55:05;;;;;;;10.00;7.23;;;22.70;99.90;;;;;;5098539;28;20460;-57
2022/08/17 06:57:37;;;;;;;8.50;7.10;;;22.60;99.90;;;;;;5098005;28;20657;-55
2022/08/17 07:00:13;;;;;;;7.40;6.30;;;22.50;99.90;;;;;;5097773;28;20495;-56
2022/08/17 07:03:02;;;;;;;9.57;7.50;;;22.70;99.90;;;;;;5098124;28;20480;-54
2022/08/17 07:05:39;;;;;;;7.17;6.53;;;22.90;99.90;;;;;;5098669;28;20467;-56
2022/08/17 07:08:15;;;;;;;10.00;7.10;;;23.20;99.90;;;;;;5096896;28;20479;-56
2022/08/17 07:10:47;;;;;;;8.77;7.87;;;23.40;99.90;;;;;;5097308;28;20456;-53
2022/08/17 07:13:25;;;;;;;7.40;6.70;;;23.50;99.90;;;;;;5097955;28;20460;-54
2022/08/17 07:15:59;;;;;;;7.30;6.53;;;23.70;99.90;;;;;;5097266;28;20460;-57
2022/08/17 07:18:31;;;;;;;10.40;7.00;;;23.60;99.90;;;;;;5097899;28;20560;-56
2022/08/17 07:21:13;;;;;;;6.80;6.10;;;23.70;99.90;;;;;;5098675;28;20456;-57
2022/08/17 07:23:54;;;;;;;6.47;5.87;;;23.90;99.90;;;;;;5097054;28;20541;-54
2022/08/17 07:26:26;;;;;;;6.73;6.23;;;24.00;99.90;;;;;;5098720;28;20886;-57
2022/08/17 07:28:55;;;;;;;6.40;5.73;;;24.30;99.90;;;;;;5097775;28;20464;-55
2022/08/17 07:31:29;;;;;;;6.20;5.10;;;24.90;99.90;;;;;;5097721;28;20896;-55
2022/08/17 07:34:06;;;;;;;6.43;5.93;;;25.30;99.90;;;;;;5097990;28;20554;-55
2022/08/17 07:36:36;;;;;;;5.90;5.40;;;25.70;99.90;;;;;;5098424;28;20513;-51
2022/08/17 07:39:09;;;;;;;7.10;5.07;;;25.80;99.90;;;;;;5098001;28;20750;-56
2022/08/17 07:41:40;;;;;;;7.43;5.50;;;26.10;99.90;;;;;;5098171;28;20897;-58
2022/08/17 07:44:13;;;;;;;5.87;5.40;;;25.80;99.90;;;;;;5098315;28;21019;-54
2022/08/17 07:49:40;;;;;;;6.20;5.60;;;25.60;99.90;;;;;;5097049;28;20931;-56
2022/08/17 07:52:12;;;;;;;6.67;5.90;;;25.50;99.90;;;;;;5097234;28;20548;-57
2022/08/17 07:54:42;;;;;;;5.73;5.23;;;25.40;99.90;;;;;;5098448;28;20527;-58
2022/08/17 07:57:34;;;;;;;6.83;6.20;;;25.10;99.90;;;;;;5098099;28;20452;-57
2022/08/17 08:00:32;;;;;;;7.17;5.67;;;25.00;99.90;;;;;;5096850;28;20464;-52
2022/08/17 08:03:21;;;;;;;7.20;6.60;;;24.90;99.90;;;;;;5077649;28;20461;-58
2022/08/17 08:05:52;;;;;;;8.90;6.90;;;24.90;99.90;;;;;;5089965;28;20480;-60
2022/08/17 08:08:38;;;;;;;6.80;6.20;;;25.20;99.90;;;;;;5096653;28;20894;-58
2022/08/17 08:11:09;;;;;;;7.10;6.50;;;25.60;99.90;;;;;;5097683;28;20550;-58
2022/08/17 08:13:41;;;;;;;6.80;5.97;;;25.50;99.90;;;;;;5096271;28;20455;-55
2022/08/17 08:16:26;;;;;;;6.70;6.20;;;25.70;99.90;;;;;;5095643;28;20572;-55
2022/08/17 08:18:56;;;;;;;7.93;7.13;;;25.90;99.90;;;;;;5096601;28;20580;-54
2022/08/17 08:21:35;;;;;;;7.53;6.90;;;25.60;99.90;;;;;;5096111;28;20755;-54
2022/08/17 08:24:28;;;;;;;8.00;7.20;;;25.80;99.90;;;;;;5096772;28;20488;-52
2022/08/17 08:27:05;;;;;;;7.00;6.40;;;26.00;99.90;;;;;;5097641;28;20456;-53
2022/08/17 08:29:41;;;;;;;6.90;6.20;;;26.00;99.90;;;;;;5096894;28;20496;-55
2022/08/17 08:32:19;;;;;;;9.10;8.20;;;25.80;99.90;;;;;;5097409;28;20747;-56
2022/08/17 08:34:59;;;;;;;8.67;7.93;;;25.90;99.90;;;;;;5096974;28;20438;-57
2022/08/17 08:37:35;;;;;;;7.63;6.93;;;26.30;99.90;;;;;;5097098;28;20471;-53
2022/08/17 08:40:20;;;;;;;6.43;5.83;;;26.50;99.90;;;;;;5096613;28;20466;-56
2022/08/17 08:42:58;;;;;;;7.93;7.33;;;26.70;99.90;;;;;;5097348;28;20581;-56
2022/08/17 08:45:33;;;;;;;9.27;7.50;;;26.80;99.90;;;;;;5096787;28;20487;-57
2022/08/17 08:48:16;;;;;;;9.23;8.23;;;26.90;99.90;;;;;;5097509;28;20533;-57
2022/08/17 08:50:56;;;;;;;8.60;7.80;;;26.70;99.90;;;;;;5096775;28;20482;-52
2022/08/17 08:53:36;;;;;;;8.67;7.80;;;26.60;99.90;;;;;;5096412;28;20467;-52
2022/08/17 08:56:10;;;;;;;9.63;8.23;;;26.60;99.90;;;;;;5097827;28;20435;-50
2022/08/17 08:58:49;;;;;;;11.30;8.10;;;26.20;99.90;;;;;;5095211;28;20559;-53
2022/08/17 09:01:28;;;;;;;10.03;8.80;;;25.80;99.90;;;;;;5096647;28;20439;-54
2022/08/17 09:04:09;;;;;;;9.87;7.83;;;25.70;99.90;;;;;;5096673;28;20474;-56
2022/08/17 09:06:46;;;;;;;9.57;8.60;;;25.50;99.90;;;;;;5093114;28;20464;-55
2022/08/17 09:09:25;;;;;;;10.23;9.27;;;25.20;99.90;;;;;;5097061;28;20435;-57
2022/08/17 09:12:04;;;;;;;10.20;9.20;;;25.10;99.90;;;;;;5095276;28;20823;-56
2022/08/17 09:14:40;;;;;;;11.97;10.87;;;25.00;99.90;;;;;;5094821;28;20474;-56
2022/08/17 09:17:13;;;;;;;10.00;9.20;;;24.70;99.90;;;;;;5095225;28;20435;-54
2022/08/17 09:19:46;;;;;;;9.20;8.40;;;24.60;99.90;;;;;;5092646;28;20750;-58
2022/08/17 09:22:30;;;;;;;9.70;8.73;;;24.50;99.90;;;;;;5094616;28;20497;-57
2022/08/17 09:25:03;;;;;;;10.30;9.40;;;24.50;99.90;;;;;;5096710;28;20458;-57
2022/08/17 09:27:38;;;;;;;14.13;9.00;;;24.50;99.90;;;;;;5099994;28;20456;-54
2022/08/17 09:30:11;;;;;;;11.27;10.10;;;24.50;99.90;;;;;;5097623;28;20432;-58
2022/08/17 09:32:42;;;;;;;12.03;10.80;;;24.50;99.90;;;;;;5098085;28;20485;-58
2022/08/17 09:35:15;;;;;;;10.40;9.30;;;24.60;99.90;;;;;;5098913;28;20456;-55
2022/08/17 09:37:53;;;;;;;10.27;9.37;;;24.60;99.90;;;;;;5098034;28;20431;-55
2022/08/17 09:40:28;;;;;;;12.70;9.47;;;24.70;99.90;;;;;;5096459;28;20550;-57
2022/08/17 09:43:07;;;;;;;11.23;10.10;;;24.70;99.90;;;;;;5098607;28;20463;-55
2022/08/17 09:45:42;;;;;;;11.30;10.10;;;24.60;99.90;;;;;;5096230;28;20955;-54
2022/08/17 09:48:17;;;;;;;10.10;9.20;;;24.60;99.90;;;;;;5095984;28;20880;-55
2022/08/17 09:50:59;;;;;;;11.83;10.60;;;24.60;99.90;;;;;;5096438;28;20433;-55
2022/08/17 09:53:27;;;;;;;9.33;8.60;;;24.60;99.90;;;;;;5094704;28;20469;-57
2022/08/17 09:56:22;;;;;;;10.23;9.33;;;24.50;99.90;;;;;;5098218;28;20438;-55
2022/08/17 09:59:07;;;;;;;11.73;10.37;;;24.60;99.90;;;;;;5090933;28;20464;-57
2022/08/17 10:01:43;;;;;;;9.93;9.03;;;24.60;99.90;;;;;;5096711;28;20885;-54
2022/08/17 10:04:35;;;;;;;9.90;9.07;;;24.50;99.90;;;;;;5096110;28;20555;-53
2022/08/17 10:07:13;;;;;;;11.40;10.27;;;24.50;99.90;;;;;;5097889;28;20868;-53
2022/08/17 10:09:54;;;;;;;9.70;8.77;;;24.50;99.90;;;;;;5096772;28;20915;-54
2022/08/17 10:12:32;;;;;;;11.90;10.63;;;24.40;99.90;;;;;;5097535;28;20521;-57
2022/08/17 10:15:15;;;;;;;10.87;9.97;;;24.30;99.90;;;;;;5095763;28;20431;-55
2022/08/17 10:17:52;;;;;;;11.57;10.47;;;24.10;99.90;;;;;;5095468;28;20506;-54
2022/08/17 10:20:25;;;;;;;10.47;9.63;;;24.10;99.90;;;;;;5095188;28;20460;-54
2022/08/17 10:28:44;;;;;;;10.93;9.77;;;24.40;99.90;;;;;;5092902;28;20425;-57
2022/08/17 10:31:22;;;;;;;12.23;11.03;;;24.60;99.90;;;;;;5096084;28;20517;-55
2022/08/17 10:34:00;;;;;;;11.77;10.20;;;24.50;99.90;;;;;;5095791;28;20460;-54
2022/08/17 10:36:38;;;;;;;12.40;10.60;;;24.30;99.90;;;;;;5096713;28;20459;-57
2022/08/17 10:39:22;;;;;;;12.37;11.27;;;24.30;99.90;;;;;;5094484;28;20551;-56
2022/08/17 10:41:54;;;;;;;12.20;11.20;;;24.40;99.90;;;;;;5094180;28;20444;-54
2022/08/17 10:44:30;;;;;;;12.70;11.53;;;24.40;99.90;;;;;;5096788;28;20445;-51
2022/08/17 10:47:10;;;;;;;13.63;12.33;;;24.40;99.90;;;;;;5096725;28;20435;-55
2022/08/17 10:49:46;;;;;;;13.80;12.60;;;24.30;99.90;;;;;;5097249;28;20488;-51
2022/08/17 10:52:51;;;;;;;14.17;12.87;;;24.40;99.90;;;;;;5094694;28;20860;-52
2022/08/17 10:55:24;;;;;;;12.30;11.30;;;24.50;99.90;;;;;;5095264;28;20457;-53
2022/08/17 10:58:14;;;;;;;13.03;11.70;;;24.40;99.90;;;;;;5093516;28;20502;-55
2022/08/17 11:00:58;;;;;;;14.17;13.00;;;24.30;99.90;;;;;;5094632;28;20549;-54
2022/08/17 11:03:27;;;;;;;14.80;13.50;;;24.20;99.90;;;;;;5095681;28;20575;-57
2022/08/17 11:06:11;;;;;;;13.57;12.37;;;24.10;99.90;;;;;;5092812;28;20491;-52
2022/08/17 11:09:14;;;;;;;13.93;12.73;;;23.90;99.90;;;;;;5094909;28;20483;-54
2022/08/17 11:12:08;;;;;;;14.07;12.93;;;24.00;99.90;;;;;;5094932;28;20771;-56
2022/08/17 11:14:50;;;;;;;18.57;14.90;;;23.90;99.90;;;;;;5096768;28;20419;-56
2022/08/17 11:17:41;;;;;;;14.10;12.90;;;24.00;99.90;;;;;;5096180;28;20471;-52
2022/08/17 11:20:59;;;;;;;14.07;12.77;;;23.90;99.90;;;;;;5096307;28;20448;-54
2022/08/17 11:24:11;;;;;;;15.10;13.77;;;23.90;99.90;;;;;;5031700;28;20430;-55
2022/08/17 11:26:52;;;;;;;14.67;13.47;;;24.00;99.90;;;;;;4997106;28;20524;-56
2022/08/17 11:29:23;;;;;;;15.23;13.93;;;24.30;99.90;;;;;;5091220;28;20423;-57
2022/08/17 11:32:04;;;;;;;15.83;14.37;;;24.30;99.90;;;;;;5094668;28;20772;-54
2022/08/17 11:34:33;;;;;;;16.53;15.03;;;24.30;99.90;;;;;;5092887;28;20433;-55
2022/08/17 11:37:36;;;;;;;16.87;15.47;;;24.30;99.90;;;;;;5095151;28;20484;-57
2022/08/17 11:40:28;;;;;;;15.50;14.07;;;24.20;99.90;;;;;;5093816;28;20994;-54
2022/08/17 11:43:12;;;;;;;15.80;14.27;;;24.40;99.90;;;;;;5095295;28;20526;-57
2022/08/17 11:45:55;;;;;;;14.27;13.17;;;24.50;99.90;;;;;;5091476;28;20480;-57
2022/08/17 11:54:44;;;;;;;16.00;14.57;;;26.40;99.90;;;;;;5077999;28;20395;-56
2022/08/17 11:57:49;;;;;;;15.63;14.43;;;27.30;99.90;;;;;;5078180;28;20440;-55
2022/08/17 12:00:56;;;;;;;15.53;14.13;;;27.70;99.90;;;;;;5094595;28;20559;-56
2022/08/17 12:03:56;;;;;;;15.70;14.50;;;27.10;99.90;;;;;;5089019;28;20579;-56
2022/08/17 12:06:34;;;;;;;15.87;14.67;;;26.80;99.90;;;;;;5096503;28;20492;-56
2022/08/17 12:09:15;;;;;;;14.40;13.10;;;27.10;99.90;;;;;;5096798;28;20456;-58
2022/08/17 12:11:50;;;;;;;17.20;15.77;;;27.30;99.90;;;;;;5097521;28;20435;-58
2022/08/17 12:14:26;;;;;;;17.77;16.27;;;27.30;99.90;;;;;;5095853;28;20870;-54
2022/08/17 12:17:01;;;;;;;14.83;13.63;;;27.80;99.90;;;;;;5095976;28;20430;-56
2022/08/17 12:19:32;;;;;;;16.07;14.77;;;27.90;99.90;;;;;;5094853;28;20547;-56
2022/08/17 12:22:09;;;;;;;18.00;16.10;;;27.60;99.90;;;;;;5095675;28;20473;-55
2022/08/17 12:24:54;;;;;;;16.27;14.97;;;28.10;99.90;;;;;;5096555;28;20836;-58
2022/08/17 12:27:26;;;;;;;17.90;16.30;;;28.20;99.90;;;;;;5096544;28;20430;-57
2022/08/17 12:29:59;;;;;;;16.77;15.37;;;28.40;99.90;;;;;;5096402;28;20514;-57
2022/08/17 12:32:32;;;;;;;17.27;15.87;;;28.20;99.90;;;;;;5097485;28;20461;-52
2022/08/17 12:35:03;;;;;;;19.13;17.53;;;28.20;99.90;;;;;;5097181;28;20464;-57
2022/08/17 12:37:33;;;;;;;15.40;14.00;;;28.00;99.90;;;;;;5093852;28;20988;-54
2022/08/17 12:40:16;;;;;;;17.27;15.87;;;28.20;99.90;;;;;;5096111;28;20465;-57
2022/08/17 12:42:57;;;;;;;17.10;15.60;;;28.90;99.90;;;;;;5095165;28;20784;-56
2022/08/17 12:45:30;;;;;;;18.10;16.60;;;29.50;99.90;;;;;;5094804;28;20527;-57
2022/08/17 12:48:07;;;;;;;17.70;16.20;;;29.10;99.90;;;;;;5093666;28;20457;-55
2022/08/17 12:50:39;;;;;;;18.37;16.73;;;29.40;99.90;;;;;;5095012;28;20488;-55
2022/08/17 12:53:12;;;;;;;16.90;15.60;;;30.00;99.90;;;;;;5094332;28;20809;-58
2022/08/17 12:55:41;;;;;;;16.67;15.37;;;30.60;99.90;;;;;;5094680;28;20818;-58
2022/08/17 12:58:18;;;;;;;16.57;15.20;;;31.20;99.90;;;;;;5094202;28;20946;-56
2022/08/17 13:00:50;;;;;;;17.67;16.20;;;30.90;99.90;;;;;;5095948;28;20464;-56
2022/08/17 13:03:27;;;;;;;17.13;15.70;;;30.30;99.90;;;;;;5095731;28;20503;-56
2022/08/17 13:05:58;;;;;;;16.00;14.70;;;29.80;99.90;;;;;;5096339;28;20919;-52
2022/08/17 13:08:40;;;;;;;16.23;14.67;;;30.00;99.90;;;;;;5096128;28;20589;-51
2022/08/17 13:11:18;;;;;;;18.00;16.60;;;30.90;99.90;;;;;;5096761;28;20916;-55
2022/08/17 13:13:50;;;;;;;15.93;14.83;;;31.10;99.90;;;;;;5095611;28;20766;-54
2022/08/17 13:16:20;;;;;;;16.77;15.40;;;31.50;99.90;;;;;;5094644;28;20495;-57
2022/08/17 13:18:52;;;;;;;15.70;14.40;;;31.30;99.90;;;;;;5094770;28;20894;-49
2022/08/17 13:21:29;;;;;;;16.07;14.57;;;31.50;99.90;;;;;;5094833;28;20459;-53
2022/08/17 13:23:59;;;;;;;15.00;13.90;;;31.30;99.90;;;;;;5093092;28;20518;-53
2022/08/17 13:26:32;;;;;;;15.93;14.63;;;30.50;99.90;;;;;;5094302;28;20549;-52
2022/08/17 13:29:02;;;;;;;16.70;15.50;;;30.90;99.90;;;;;;5095692;28;20786;-54
2022/08/17 13:31:45;;;;;;;18.07;16.77;;;31.30;99.90;;;;;;5094428;28;20463;-58
2022/08/17 13:34:18;;;;;;;17.70;16.30;;;31.10;99.90;;;;;;5092340;28;20460;-55
2022/08/17 13:36:54;;;;;;;18.40;16.50;;;30.40;99.90;;;;;;5094135;28;20438;-56
2022/08/17 13:39:29;;;;;;;16.47;15.10;;;29.50;99.90;;;;;;5092737;28;20856;-54
2022/08/17 13:41:57;;;;;;;17.77;16.33;;;29.80;99.90;;;;;;5092076;28;20509;-56